Warsaw, IN

11:59 PM EDT on September 23, 2014 (GMT -0400)
15 South | Change Station
CLOSE
Current Station
Personal Weather Station
Location: Warsaw, IN
Elevation: 840 ft
Nearby Weather Stations

Elev 840 ft 41.22 °N, 85.87 °W | Updated 1 minute ago

Clear
Clear
50.7 °F
Feels Like 50.7 °F
N
0.0
Wind Variable Wind from ENE
Gusts 0.0 mph

Today
High -- | Low -- °F
--% Chance of Precip.
Yesterday
High -- | Low -- °F
Precip. -- in
7:31 AM 7:38 PM
Waning Crescent, 0% visible
Pressure 30.34 in
Visibility 10.0 miles
Clouds Clear
Dew Point 49 °F
Humidity 94%
Rainfall 0.00 in
Snow Depth Not available.
UV 0 out of 12
Pollen 4.70 out of 12
Air Quality Not available.
Flu Activity Not available.
METAR KASW 240335Z AUTO 00000KT 10SM CLR 10/10 A3034 RMK AO2

More Conditions Fewer Conditions

Pressure 30.34 in
Visibility 10.0 miles
Clouds Clear
Dew Point 49 °F
Humidity 94%
Rainfall 0.00 in
Snow Depth Not available.
UV 0 out of 12
Pollen 4.70 out of 12
Air Quality Not available.
Flu Activity Not available.
METAR KASW 240335Z AUTO 00000KT 10SM CLR 10/10 A3034 RMK AO2

More Conditions Fewer Conditions

10-Day Weather Forecast

Almanac

Astronomy

Sep. 23, 2014 Rise Set
Actual Time 7:31 AM EDT 7:38 PM EDT
Civil Twilight 7:04 AM EDT 8:06 PM EDT
Nautical Twilight 6:32 AM EDT 8:38 PM EDT
Astronomical Twilight 5:59 AM EDT 9:11 PM EDT
Moon 6:55 AM EDT (9/23) 7:17 PM EDT (9/23)
Length of Visible Light 13h 01m
Length of Day
12h 06m
Tomorrow will be 2m 43s shorter.
Waning Crescent, 0% of the Moon is Illuminated
Today
Waning Crescent
Sep 24
New
Oct 1
First Quarter
Oct 8
Full
Oct 15
Last Quarter

Today's Extremes

State Highs State Lows

Community

WunderPhotos

Upload Photos

1,755,878 photos uploaded!

WunderBlogs® & News

Nearby

Snow Depth

Station Depth Elevation
No new snow has been reported.

Earthquake Activity

City Distance Mag. Time & Date
No recent earthquake activity has been reported nearby.
Minimum magnitude displayed is 2.5.

Coastal Water Temperatures

Place Temperature
No Stations Reporting

Nearby Weather Stations